Time;durP1;ratioP1;P1;durP2;ratioP2;P2;SDS_P1;SDS_P2;PMS_P1;PMS_P2;Temp;Humidity;BMP_temperature;BMP_pressure;BME280_temperature;BME280_humidity;BME280_pressure;Samples;Min_cycle;Max_cycle;Signal;HPM_P1;HPM_P2
2023/04/25 00:06:32;;;;;;;1.57;1.27;;;7.50;3.40;;;;;;8284350;28;20312;-67
2023/04/25 00:11:04;;;;;;;2.20;1.47;;;7.50;5.50;;;;;;8277963;28;20210;-67
2023/04/25 00:15:26;;;;;;;1.63;1.37;;;7.50;12.40;;;;;;8228632;28;20223;-68
2023/04/25 00:19:44;;;;;;;1.50;1.20;;;7.50;12.70;;;;;;8214451;28;20280;-67
2023/04/25 00:24:00;;;;;;;1.67;1.37;;;7.40;21.70;;;;;;8209965;28;20199;-68
2023/04/25 00:28:16;;;;;;;3.47;1.90;;;7.30;31.00;;;;;;8208858;28;20238;-67
2023/04/25 00:32:32;;;;;;;2.33;1.57;;;7.20;53.60;;;;;;8226507;28;20216;-67
2023/04/25 00:42:01;;;;;;;1.47;1.37;;;7.10;92.10;;;;;;8099277;29;20205;-68
2023/04/25 00:46:18;;;;;;;1.73;1.37;;;7.00;99.90;;;;;;8222904;28;20213;-68
2023/04/25 00:55:22;;;;;;;3.33;1.43;;;7.00;99.90;;;;;;8285291;28;20203;-68
2023/04/25 01:00:14;;;;;;;2.10;1.60;;;6.90;99.90;;;;;;8273204;28;20233;-69
2023/04/25 01:04:36;;;;;;;1.83;1.40;;;6.80;99.90;;;;;;8145776;28;20310;-69
2023/04/25 01:08:49;;;;;;;2.17;1.63;;;6.70;99.90;;;;;;8220106;28;20202;-69
2023/04/25 01:18:07;;;;;;;3.47;2.30;;;6.60;99.90;;;;;;8268264;28;20186;-66
2023/04/25 01:22:59;;;;;;;2.37;2.00;;;6.50;99.90;;;;;;8283370;28;20195;-68
2023/04/25 01:32:39;;;;;;;;;;;;;;;;;;;;;
2023/04/25 01:37:23;;;;;;;2.57;2.23;;;6.40;99.90;;;;;;8285661;28;20237;-67
2023/04/25 01:41:36;;;;;;;2.43;2.23;;;6.30;99.90;;;;;;8244808;28;20199;-69
2023/04/25 01:46:30;;;;;;;3.20;2.50;;;6.30;99.90;;;;;;8275238;28;20190;-71
2023/04/25 01:51:04;;;;;;;3.50;2.57;;;6.30;99.90;;;;;;8252160;28;20210;-68
2023/04/25 01:55:18;;;;;;;4.27;2.80;;;6.30;99.90;;;;;;8243013;28;20281;-66
2023/04/25 01:59:23;;;;;;;5.43;2.50;;;6.20;99.90;;;;;;8271382;28;20238;-67
2023/04/25 02:03:40;;;;;;;4.57;3.00;;;6.20;99.90;;;;;;8273065;28;20198;-66
2023/04/25 02:08:04;;;;;;;3.17;2.77;;;6.20;99.90;;;;;;8272312;28;20183;-68
2023/04/25 02:12:32;;;;;;;3.63;2.83;;;6.10;99.90;;;;;;8264255;28;20214;-68
2023/04/25 02:17:05;;;;;;;3.00;2.57;;;6.10;99.90;;;;;;8268050;28;20191;-67
2023/04/25 02:21:37;;;;;;;2.90;2.53;;;6.00;99.90;;;;;;8252541;28;20206;-69
2023/04/25 02:25:38;;;;;;;3.80;2.23;;;5.90;99.90;;;;;;8267465;28;20187;-69
2023/04/25 02:30:07;;;;;;;4.83;2.90;;;5.90;99.90;;;;;;8282748;28;20342;-69
2023/04/25 02:34:08;;;;;;;3.20;2.90;;;5.90;99.90;;;;;;8265717;28;20186;-68
2023/04/25 02:38:32;;;;;;;3.97;2.97;;;5.80;99.90;;;;;;8282477;28;20178;-68
2023/04/25 02:57:37;;;;;;;;;;;;;;;;;;;;;
2023/04/25 03:01:45;;;;;;;3.57;3.10;;;5.30;1.00;;;;;;8218526;28;20228;-70
2023/04/25 03:06:05;;;;;;;5.17;2.77;;;5.20;1.00;;;;;;8283183;28;20191;-69
2023/04/25 03:10:38;;;;;;;3.80;3.40;;;5.20;1.00;;;;;;8283552;28;20240;-69
2023/04/25 03:15:12;;;;;;;3.83;3.43;;;5.10;1.00;;;;;;8252251;28;20218;-69
2023/04/25 03:19:24;;;;;;;4.60;4.00;;;5.10;1.00;;;;;;8255748;28;20225;-68
2023/04/25 03:23:29;;;;;;;7.80;3.30;;;5.00;1.00;;;;;;8267639;28;20214;-69
2023/04/25 03:33:05;;;;;;;4.40;3.80;;;4.80;12.30;;;;;;8266812;28;20324;-69
2023/04/25 03:37:45;;;;;;;5.00;3.37;;;4.80;53.30;;;;;;8229805;28;20191;-67
2023/04/25 03:42:20;;;;;;;;;;;;;;;;;;;;;
2023/04/25 03:46:53;;;;;;;6.10;3.90;;;4.70;99.90;;;;;;8251202;28;20238;-67
2023/04/25 03:55:58;;;;;;;5.20;4.30;;;4.70;99.90;;;;;;8173086;28;20293;-68
2023/04/25 04:05:20;;;;;;;;;;;;;;;;;;;;;
2023/04/25 04:09:50;;;;;;;6.03;3.77;;;4.70;99.90;;;;;;8303439;28;20231;-68
2023/04/25 04:23:40;;;;;;;6.23;3.83;;;5.10;72.40;;;;;;8285903;28;20197;-68
2023/04/25 04:28:02;;;;;;;5.00;4.23;;;5.30;1.00;;;;;;8266156;28;20186;-69
2023/04/25 04:32:11;;;;;;;5.10;3.77;;;5.50;1.00;;;;;;8293565;28;20222;-68
2023/04/25 04:41:19;;;;;;;5.80;4.00;;;5.80;99.90;;;;;;8283687;28;20299;-68
2023/04/25 04:45:47;;;;;;;4.23;3.63;;;6.00;99.90;;;;;;8112602;29;20216;-68
2023/04/25 04:54:44;;;;;;;5.57;3.60;;;6.30;99.90;;;;;;8083212;29;20213;-68
2023/04/25 04:59:22;;;;;;;4.57;3.50;;;6.50;99.90;;;;;;8216857;28;20218;-68
2023/04/25 05:03:53;;;;;;;3.67;3.17;;;6.60;99.90;;;;;;8277646;28;20201;-68
2023/04/25 05:09:25;;;;;;;;;;;;;;;;;;;;;
2023/04/25 05:14:16;;;;;;;5.30;3.23;;;6.70;99.90;;;;;;8079058;29;20215;-70
2023/04/25 05:19:14;;;;;;;4.33;3.50;;;6.90;99.90;;;;;;8141560;29;20267;-67
2023/04/25 05:23:33;;;;;;;5.83;3.57;;;7.20;99.90;;;;;;8187982;28;20203;-68
2023/04/25 05:27:58;;;;;;;7.37;3.50;;;7.60;99.90;;;;;;8286785;28;20197;-69
2023/04/25 05:37:42;;;;;;;5.07;3.37;;;8.10;76.80;;;;;;8177366;28;20194;-70
2023/04/25 05:46:47;;;;;;;3.47;2.60;;;8.40;36.00;;;;;;8281361;28;20256;-70
2023/04/25 05:51:32;;;;;;;4.27;3.33;;;8.60;30.60;;;;;;8225703;28;20254;-71
2023/04/25 05:56:05;;;;;;;4.43;3.33;;;8.80;17.90;;;;;;8125196;28;20207;-70
2023/04/25 06:01:47;;;;;;;4.37;3.40;;;9.00;1.00;;;;;;8205376;28;20200;-71
2023/04/25 06:10:42;;;;;;;4.20;3.80;;;9.40;1.00;;;;;;8223003;28;20236;-71
2023/04/25 06:14:55;;;;;;;5.80;4.00;;;9.30;1.00;;;;;;8244858;28;20229;-70
2023/04/25 06:18:59;;;;;;;4.80;3.80;;;9.50;1.00;;;;;;8266708;28;20229;-71
2023/04/25 06:23:09;;;;;;;5.37;3.93;;;10.00;1.00;;;;;;8281211;28;20184;-71
2023/04/25 06:27:31;;;;;;;7.27;3.53;;;10.60;1.00;;;;;;8286166;28;20220;-70
2023/04/25 06:32:25;;;;;;;;;;;;;;;;;;;;;
2023/04/25 06:37:05;;;;;;;5.00;3.57;;;10.30;1.00;;;;;;8287896;28;20208;-71
2023/04/25 06:41:43;;;;;;;8.53;4.90;;;10.20;1.00;;;;;;8262492;28;20199;-72
2023/04/25 06:51:46;;;;;;;6.17;4.40;;;9.70;1.00;;;;;;8028506;29;20232;-67
2023/04/25 07:01:18;;;;;;;;;;;;;;;;;;;;;
2023/04/25 07:05:45;;;;;;;4.83;3.17;;;9.50;1.00;;;;;;8133288;29;20232;-67
2023/04/25 07:15:38;;;;;;;5.50;3.23;;;9.80;1.00;;;;;;8249204;28;20193;-70
2023/04/25 07:26:05;;;;;;;6.50;2.93;;;9.90;1.00;;;;;;8072994;29;20219;-69
2023/04/25 07:30:55;;;;;;;;;;;;;;;;;;;;;
2023/04/25 07:35:58;;;;;;;;;;;;;;;;;;;;;
2023/04/25 07:40:47;;;;;;;;;;;;;;;;;;;;;
2023/04/25 07:50:53;;;;;;;;;;;;;;;;;;;;;
2023/04/25 08:08:22;;;;;;;2.73;1.40;;;10.90;1.00;;;;;;8287428;28;20189;-71
2023/04/25 08:12:35;;;;;;;2.70;1.60;;;10.90;1.00;;;;;;8304750;28;20208;-71
2023/04/25 08:21:33;;;;;;;2.53;1.70;;;10.90;1.00;;;;;;8267666;28;20226;-70
2023/04/25 08:26:42;;;;;;;3.20;1.80;;;11.40;1.00;;;;;;8217731;28;20198;-67
2023/04/25 08:36:25;;;;;;;2.87;1.20;;;12.10;1.00;;;;;;8201383;28;20389;-68
2023/04/25 08:41:01;;;;;;;2.67;1.37;;;12.60;1.00;;;;;;8173056;28;20220;-68
2023/04/25 08:45:42;;;;;;;6.43;1.43;;;12.10;1.00;;;;;;8170737;28;20226;-68
2023/04/25 08:50:44;;;;;;;;;;;;;;;;;;;;;
2023/04/25 08:55:39;;;;;;;2.43;1.37;;;11.90;1.00;;;;;;8186312;28;20230;-68
2023/04/25 09:05:09;;;;;;;3.13;1.20;;;11.10;1.00;;;;;;8202025;28;20214;-67
2023/04/25 09:10:01;;;;;;;1.43;0.93;;;12.00;1.00;;;;;;8265324;28;20194;-68
2023/04/25 09:14:35;;;;;;;0.93;0.73;;;12.30;1.00;;;;;;8246258;28;20195;-67
2023/04/25 09:18:52;;;;;;;1.47;0.83;;;11.70;1.00;;;;;;8245782;28;20182;-68
2023/04/25 09:23:51;;;;;;;1.40;1.07;;;11.30;1.00;;;;;;8265314;28;20279;-67
2023/04/25 09:28:09;;;;;;;3.00;0.87;;;11.60;1.00;;;;;;8209519;28;20241;-67
2023/04/25 09:32:54;;;;;;;1.50;1.30;;;11.80;1.00;;;;;;8233708;28;20222;-67
2023/04/25 09:37:59;;;;;;;2.00;1.30;;;11.90;1.00;;;;;;8240294;28;20191;-67
2023/04/25 09:42:53;;;;;;;3.07;1.10;;;12.30;1.00;;;;;;8050914;29;20195;-65
2023/04/25 09:46:54;;;;;;;2.63;1.47;;;12.70;1.00;;;;;;7951280;29;20230;-66
2023/04/25 09:51:17;;;;;;;2.33;1.33;;;12.20;1.00;;;;;;7989810;29;20220;-67
2023/04/25 09:55:45;;;;;;;1.13;1.00;;;12.90;1.00;;;;;;7977799;29;20256;-67
2023/04/25 10:00:11;;;;;;;2.03;1.00;;;12.80;1.00;;;;;;8097215;29;20285;-68
2023/04/25 10:04:23;;;;;;;2.10;1.03;;;11.70;1.00;;;;;;8114024;29;20206;-67
2023/04/25 10:08:54;;;;;;;4.93;2.00;;;11.80;1.00;;;;;;8134022;29;20208;-68
2023/04/25 10:13:21;;;;;;;3.93;1.30;;;11.80;1.00;;;;;;8196495;28;20212;-66
2023/04/25 10:18:02;;;;;;;2.33;1.20;;;11.70;1.00;;;;;;8190090;28;20198;-66
2023/04/25 10:22:26;;;;;;;1.60;1.40;;;12.00;1.00;;;;;;8200151;28;20251;-68
2023/04/25 10:26:45;;;;;;;1.33;1.20;;;12.40;1.00;;;;;;8235224;28;20195;-67
2023/04/25 10:31:02;;;;;;;1.90;1.23;;;12.40;1.00;;;;;;8276101;28;20229;-66
2023/04/25 10:35:56;;;;;;;;;;;;;;;;;;;;;
2023/04/25 10:40:30;;;;;;;2.97;1.50;;;12.00;1.00;;;;;;8204092;28;20230;-67
2023/04/25 10:45:00;;;;;;;2.73;1.70;;;12.00;1.00;;;;;;8260591;28;20203;-67
2023/04/25 10:49:10;;;;;;;2.13;1.20;;;12.20;1.00;;;;;;8276288;28;20286;-69
2023/04/25 10:53:43;;;;;;;1.50;1.23;;;12.50;1.00;;;;;;8260633;28;20291;-70
2023/04/25 11:02:26;;;;;;;3.00;1.40;;;11.80;1.00;;;;;;8265707;28;20210;-71
2023/04/25 11:11:19;;;;;;;4.40;1.30;;;12.50;1.00;;;;;;8243689;28;20227;-70
2023/04/25 11:15:55;;;;;;;2.97;1.47;;;12.30;1.00;;;;;;8263682;28;20187;-70
2023/04/25 11:20:17;;;;;;;2.03;1.30;;;12.30;1.00;;;;;;8272988;28;20195;-70
2023/04/25 11:24:59;;;;;;;2.10;1.27;;;12.60;1.00;;;;;;8260104;28;20205;-69
2023/04/25 11:29:34;;;;;;;;;;;;;;;;;;;;;
2023/04/25 11:34:14;;;;;;;2.17;1.30;;;11.90;1.00;;;;;;8273445;28;20233;-70
2023/04/25 11:38:31;;;;;;;1.70;1.30;;;12.30;1.00;;;;;;8276686;28;20210;-70
2023/04/25 11:42:56;;;;;;;2.13;1.40;;;12.30;1.00;;;;;;8263278;28;20195;-68
2023/04/25 11:47:21;;;;;;;1.10;1.00;;;12.20;1.00;;;;;;8263415;28;20195;-70
2023/04/25 11:52:06;;;;;;;2.73;0.90;;;12.30;1.00;;;;;;8259752;28;20215;-72
2023/04/25 11:56:31;;;;;;;2.27;1.30;;;13.10;1.00;;;;;;8225537;28;20267;-70
2023/04/25 12:00:32;;;;;;;3.40;1.17;;;13.60;1.00;;;;;;8265167;28;20201;-70
2023/04/25 12:09:44;;;;;;;1.13;0.83;;;12.90;1.00;;;;;;8271843;28;20199;-71
2023/04/25 12:13:51;;;;;;;2.53;1.10;;;12.80;1.00;;;;;;8262763;28;20223;-71
2023/04/25 12:18:09;;;;;;;3.20;1.80;;;12.80;1.00;;;;;;8267655;28;20207;-70
2023/04/25 12:22:44;;;;;;;2.30;1.40;;;12.50;1.00;;;;;;8281998;28;20227;-71
2023/04/25 12:26:59;;;;;;;3.93;1.30;;;12.50;1.00;;;;;;8283470;28;20191;-70
2023/04/25 12:31:25;;;;;;;2.77;1.60;;;12.50;1.00;;;;;;8286317;28;20226;-71
2023/04/25 12:35:57;;;;;;;4.33;1.50;;;12.60;1.00;;;;;;8235962;28;20198;-72
2023/04/25 12:40:26;;;;;;;1.40;1.10;;;12.30;1.00;;;;;;8256629;28;20293;-71
2023/04/25 12:44:30;;;;;;;4.57;1.70;;;12.00;1.00;;;;;;8160156;28;20210;-70
2023/04/25 12:48:35;;;;;;;1.90;0.87;;;12.10;1.00;;;;;;8262625;28;20191;-71
2023/04/25 12:52:48;;;;;;;1.93;1.17;;;12.00;1.00;;;;;;8287164;28;20217;-71
2023/04/25 12:57:18;;;;;;;3.07;1.30;;;11.80;1.00;;;;;;8258504;28;20245;-70
2023/04/25 13:16:59;;;;;;;1.80;1.50;;;10.60;1.00;;;;;;8114131;28;20296;-68
2023/04/25 13:21:11;;;;;;;2.13;1.57;;;10.30;1.00;;;;;;8057761;29;20227;-67
2023/04/25 13:26:01;;;;;;;2.70;1.77;;;10.20;1.00;;;;;;8152222;28;20195;-68
2023/04/25 13:30:11;;;;;;;2.90;1.97;;;10.60;1.00;;;;;;8152793;29;20327;-67
2023/04/25 13:35:02;;;;;;;2.00;1.80;;;11.00;1.00;;;;;;8161959;28;20375;-67
2023/04/25 13:39:26;;;;;;;3.47;2.33;;;11.30;1.00;;;;;;8155066;28;20196;-66
2023/04/25 13:44:14;;;;;;;4.37;2.37;;;11.20;1.00;;;;;;8124680;28;20207;-69
2023/04/25 13:48:15;;;;;;;4.30;2.23;;;11.10;1.00;;;;;;8159935;28;20223;-69
2023/04/25 13:57:33;;;;;;;;;;;;;;;;;;;;;
2023/04/25 14:02:35;;;;;;;;;;;;;;;;;;;;;
2023/04/25 14:17:08;;;;;;;2.43;2.00;;;10.10;1.00;;;;;;8224342;28;20292;-67
2023/04/25 14:21:46;;;;;;;3.50;2.07;;;10.10;1.00;;;;;;8267313;28;20213;-66
2023/04/25 14:26:20;;;;;;;2.83;1.60;;;10.10;1.00;;;;;;8256904;28;20191;-68
2023/04/25 14:31:15;;;;;;;2.37;1.60;;;9.10;1.00;;;;;;8252097;28;20342;-67
2023/04/25 14:35:40;;;;;;;3.63;2.10;;;8.50;14.30;;;;;;8255804;28;20203;-69
2023/04/25 14:40:40;;;;;;;2.70;1.97;;;8.20;99.90;;;;;;8274798;28;20266;-66
2023/04/25 14:45:30;;;;;;;1.97;1.77;;;8.10;99.90;;;;;;8256016;28;20195;-67
2023/04/25 14:49:38;;;;;;;3.83;1.60;;;8.10;99.90;;;;;;8180977;28;20204;-70
2023/04/25 14:53:57;;;;;;;2.73;1.70;;;8.30;99.90;;;;;;8185134;28;20220;-70
2023/04/25 14:58:24;;;;;;;2.87;1.87;;;8.60;99.90;;;;;;8183643;28;20320;-69
2023/04/25 15:02:54;;;;;;;4.87;2.30;;;8.50;99.90;;;;;;8179670;28;20197;-70
2023/04/25 15:07:24;;;;;;;5.80;2.13;;;8.50;99.90;;;;;;8123660;29;20242;-70
2023/04/25 15:11:56;;;;;;;;;;;;;;;;;;;;;
2023/04/25 15:16:06;;;;;;;3.60;1.90;;;8.50;99.90;;;;;;8191318;28;20216;-72
2023/04/25 15:21:03;;;;;;;3.53;2.00;;;8.60;99.90;;;;;;8197287;28;20196;-69
2023/04/25 15:25:13;;;;;;;2.83;2.20;;;8.60;99.90;;;;;;8017577;29;20201;-69
2023/04/25 15:29:17;;;;;;;4.00;2.03;;;8.80;99.90;;;;;;8003688;29;20201;-70
2023/04/25 15:34:01;;;;;;;6.20;2.27;;;8.70;99.90;;;;;;8004557;29;20232;-71
2023/04/25 15:38:09;;;;;;;4.30;2.00;;;8.60;99.90;;;;;;8038212;29;20199;-71
2023/04/25 15:42:36;;;;;;;5.20;2.20;;;8.80;99.90;;;;;;8052678;29;20282;-70
2023/04/25 16:09:37;;;;;;;5.27;2.30;;;10.00;1.00;;;;;;8323684;28;20261;-70
2023/04/25 16:13:41;;;;;;;5.80;2.20;;;10.30;1.00;;;;;;8312607;28;20225;-70
2023/04/25 16:18:10;;;;;;;11.27;2.60;;;10.30;1.00;;;;;;8322481;28;20182;-70
2023/04/25 16:22:38;;;;;;;4.23;2.23;;;10.30;1.00;;;;;;8292563;28;20187;-71
2023/04/25 16:26:49;;;;;;;4.73;1.70;;;10.10;1.00;;;;;;8317165;28;20199;-70
2023/04/25 16:31:31;;;;;;;6.80;2.50;;;10.30;1.00;;;;;;8324384;28;20228;-69
2023/04/25 16:35:48;;;;;;;4.00;2.07;;;10.30;1.00;;;;;;8304720;28;20230;-68
2023/04/25 16:40:22;;;;;;;7.80;2.77;;;10.20;1.00;;;;;;8334381;28;20190;-67
2023/04/25 16:44:27;;;;;;;5.27;2.30;;;9.70;1.00;;;;;;8320616;28;20182;-68
2023/04/25 16:49:19;;;;;;;;;;;;;;;;;;;;;
2023/04/25 16:54:07;;;;;;;;;;;;;;;;;;;;;
2023/04/25 16:58:32;;;;;;;7.70;2.20;;;9.10;1.00;;;;;;8262637;28;20257;-70
2023/04/25 17:02:59;;;;;;;6.90;2.30;;;9.00;1.00;;;;;;8336227;28;20186;-70
2023/04/25 17:17:26;;;;;;;7.43;2.23;;;8.90;1.00;;;;;;8135172;29;20198;-72
2023/04/25 17:21:51;;;;;;;9.03;2.50;;;8.90;1.00;;;;;;8135834;29;20206;-69
2023/04/25 17:31:35;;;;;;;9.47;2.87;;;8.70;1.00;;;;;;8125700;28;20248;-70
2023/04/25 17:35:57;;;;;;;7.47;3.27;;;8.60;1.00;;;;;;8207213;28;20199;-71
2023/04/25 17:39:58;;;;;;;6.63;2.57;;;8.50;1.00;;;;;;8222661;28;20211;-72
2023/04/25 17:49:14;;;;;;;13.27;3.47;;;8.50;1.00;;;;;;8229410;28;20237;-68
2023/04/25 17:57:52;;;;;;;8.80;2.27;;;8.40;1.00;;;;;;8248124;28;20285;-68
2023/04/25 18:06:31;;;;;;;6.00;2.33;;;8.20;1.00;;;;;;8254893;28;20226;-65
2023/04/25 18:10:42;;;;;;;5.17;2.27;;;8.10;1.00;;;;;;8281446;28;20221;-68
2023/04/25 18:15:00;;;;;;;7.00;2.53;;;8.00;1.00;;;;;;8324718;28;20185;-67
2023/04/25 18:20:05;;;;;;;8.27;2.50;;;7.80;1.00;;;;;;8316630;28;20198;-68
2023/04/25 18:29:22;;;;;;;6.97;2.17;;;7.20;1.00;;;;;;8306035;28;20229;-66
2023/04/25 18:38:24;;;;;;;2.80;1.90;;;6.60;1.00;;;;;;8220480;28;20256;-69
2023/04/25 18:43:18;;;;;;;4.30;2.13;;;6.30;1.00;;;;;;8199463;28;20206;-68
2023/04/25 18:52:56;;;;;;;5.53;1.63;;;5.80;1.00;;;;;;8155273;29;20308;-66
2023/04/25 19:02:16;;;;;;;;;;;;;;;;;;;;;
2023/04/25 19:06:48;;;;;;;;;;;;;;;;;;;;;
2023/04/25 19:11:43;;;;;;;5.03;2.67;;;4.80;1.00;;;;;;8318307;28;20225;-67
2023/04/25 19:16:08;;;;;;;;;;;;;;;;;;;;;
2023/04/25 19:20:45;;;;;;;5.60;2.37;;;4.70;1.00;;;;;;8319375;28;20209;-67
2023/04/25 19:25:26;;;;;;;4.87;1.83;;;4.70;1.00;;;;;;8297294;28;20194;-68
2023/04/25 19:29:47;;;;;;;;;;;;;;;;;;;;;
2023/04/25 19:34:11;;;;;;;6.83;2.73;;;4.60;1.00;;;;;;8320426;28;20230;-67
2023/04/25 19:38:14;;;;;;;7.27;2.53;;;4.60;1.00;;;;;;8326116;28;20262;-68
2023/04/25 19:42:27;;;;;;;5.57;2.33;;;4.40;1.00;;;;;;8319003;28;20216;-67
2023/04/25 19:46:48;;;;;;;7.17;3.00;;;4.20;1.00;;;;;;8321578;28;20276;-67
2023/04/25 19:50:51;;;;;;;5.20;2.27;;;4.20;1.00;;;;;;8330504;28;20207;-68
2023/04/25 19:55:40;;;;;;;5.80;2.73;;;4.00;1.00;;;;;;8321280;28;20184;-68
2023/04/25 20:04:41;;;;;;;11.27;3.47;;;3.90;16.90;;;;;;8295777;28;20197;-68
2023/04/25 20:08:48;;;;;;;8.20;3.40;;;3.80;23.80;;;;;;8315432;28;20196;-68
2023/04/25 20:12:49;;;;;;;10.33;3.83;;;3.70;37.70;;;;;;8327342;28;20218;-67
2023/04/25 20:17:28;;;;;;;7.60;3.53;;;3.60;89.20;;;;;;8321220;28;20188;-67
2023/04/25 20:21:52;;;;;;;5.57;2.83;;;3.70;82.40;;;;;;8319708;28;20209;-67
2023/04/25 20:30:47;;;;;;;8.37;2.63;;;3.80;39.30;;;;;;8317265;28;20317;-68
2023/04/25 20:35:21;;;;;;;7.03;3.00;;;3.90;18.40;;;;;;8320883;28;20178;-67
2023/04/25 20:39:38;;;;;;;7.00;2.93;;;4.00;4.90;;;;;;8318362;28;20204;-67
2023/04/25 20:43:52;;;;;;;9.70;2.53;;;4.10;1.00;;;;;;8321535;28;20201;-68
2023/04/25 20:48:09;;;;;;;5.17;2.70;;;4.20;1.00;;;;;;8324882;28;20190;-67
2023/04/25 20:52:14;;;;;;;4.07;2.53;;;4.20;1.00;;;;;;8341881;28;20210;-67
2023/04/25 20:56:28;;;;;;;8.33;2.53;;;4.30;1.00;;;;;;8316810;28;20205;-68
2023/04/25 21:00:37;;;;;;;6.20;2.50;;;4.40;1.00;;;;;;8316337;28;20202;-67
2023/04/25 21:04:53;;;;;;;6.60;2.80;;;4.50;1.00;;;;;;8320538;28;20256;-68
2023/04/25 21:09:10;;;;;;;;;;;;;;;;;;;;;
2023/04/25 21:13:17;;;;;;;5.90;2.33;;;4.50;1.00;;;;;;8309855;28;20249;-66
2023/04/25 21:17:53;;;;;;;6.70;3.00;;;4.50;1.00;;;;;;8322222;28;20182;-68
2023/04/25 21:22:31;;;;;;;6.13;2.93;;;4.50;1.00;;;;;;8316623;28;20209;-67
2023/04/25 21:26:35;;;;;;;3.40;2.40;;;4.40;1.00;;;;;;8322340;28;20200;-67
2023/04/25 21:30:52;;;;;;;5.43;3.03;;;4.40;1.00;;;;;;8329917;28;20214;-68
2023/04/25 21:34:56;;;;;;;5.13;2.17;;;4.40;1.00;;;;;;8312765;28;20250;-68
2023/04/25 21:39:43;;;;;;;11.07;6.03;;;4.40;1.00;;;;;;8299981;28;20182;-70
2023/04/25 21:48:42;;;;;;;11.37;2.50;;;4.40;1.00;;;;;;8302388;28;20190;-67
2023/04/25 21:52:57;;;;;;;6.40;2.97;;;4.40;1.00;;;;;;8313092;28;20221;-68
2023/04/25 21:57:16;;;;;;;;;;;;;;;;;;;;;
2023/04/25 22:01:18;;;;;;;6.23;2.63;;;4.30;1.00;;;;;;8315523;28;20258;-67
2023/04/25 22:05:25;;;;;;;6.20;2.50;;;4.20;1.00;;;;;;8316357;28;20197;-68
2023/04/25 22:10:01;;;;;;;7.17;2.50;;;4.10;1.00;;;;;;8321529;28;20187;-67
2023/04/25 22:14:13;;;;;;;9.73;2.37;;;3.90;1.00;;;;;;8327979;28;20199;-68
2023/04/25 22:18:21;;;;;;;6.53;2.80;;;3.80;1.00;;;;;;8332621;28;20182;-67
2023/04/25 22:22:28;;;;;;;6.90;2.77;;;3.80;1.00;;;;;;8326406;28;20181;-67
2023/04/25 22:26:38;;;;;;;11.97;2.47;;;3.70;1.00;;;;;;8320098;28;20194;-68
2023/04/25 22:30:41;;;;;;;5.10;2.30;;;3.50;1.00;;;;;;8315549;28;20257;-68
2023/04/25 22:35:01;;;;;;;7.87;2.77;;;3.40;5.50;;;;;;8321398;28;20209;-66
2023/04/25 22:39:18;;;;;;;7.97;2.80;;;3.40;13.10;;;;;;8315565;28;20189;-66
2023/04/25 22:43:20;;;;;;;5.20;2.67;;;3.30;28.80;;;;;;8315127;28;20178;-68
2023/04/25 22:47:46;;;;;;;5.77;2.50;;;3.20;38.60;;;;;;8313321;28;20192;-68
2023/04/25 22:51:52;;;;;;;4.27;2.00;;;3.30;37.50;;;;;;8320251;28;20216;-69
2023/04/25 23:00:31;;;;;;;4.73;2.57;;;3.00;52.10;;;;;;8306272;28;20282;-67
2023/04/25 23:04:32;;;;;;;10.53;2.23;;;2.90;68.10;;;;;;8320370;28;20198;-67
2023/04/25 23:08:55;;;;;;;5.27;1.60;;;2.70;99.90;;;;;;8321647;28;20198;-68
2023/04/25 23:12:59;;;;;;;4.70;2.53;;;2.60;99.90;;;;;;8331913;28;20210;-68
2023/04/25 23:17:21;;;;;;;4.07;2.07;;;2.50;99.90;;;;;;8317997;28;20182;-68
2023/04/25 23:21:35;;;;;;;4.77;2.13;;;2.40;99.90;;;;;;8312157;28;20201;-69
2023/04/25 23:25:58;;;;;;;2.73;2.50;;;2.20;99.90;;;;;;8317542;28;20197;-67
2023/04/25 23:30:32;;;;;;;5.83;2.67;;;2.10;99.90;;;;;;8317501;28;20193;-69
2023/04/25 23:34:33;;;;;;;8.33;2.90;;;2.20;99.90;;;;;;8315970;28;20277;-68
2023/04/25 23:38:35;;;;;;;3.57;2.10;;;2.20;99.90;;;;;;8321022;28;20193;-68
2023/04/25 23:43:06;;;;;;;5.50;2.60;;;2.20;99.90;;;;;;8315454;28;20194;-68
2023/04/25 23:47:20;;;;;;;7.07;2.73;;;2.20;99.90;;;;;;8328318;28;20214;-67
2023/04/25 23:51:24;;;;;;;8.23;2.63;;;2.20;99.90;;;;;;8331440;28;20214;-68
2023/04/25 23:55:32;;;;;;;7.43;3.13;;;2.20;99.90;;;;;;8314717;28;20182;-67
2023/04/25 23:59:58;;;;;;;3.73;2.30;;;2.20;99.90;;;;;;8303801;22;20245;-68
